Terminal Aerodrome Forecast
Issued by NWS Milwaukee/Sullivan, WI

Home | Current Version | Previous Version | Text Only | Print | Product List | Glossary On
Versions: 1 2 3 4 5 6 7 8 9 10 11 12 13 14 15 16 17 18 19 20 21 22 23 24 25 26 27 28 29 30 31 32 33 34 35 36 37 38 39 40 41 42 43 44 45 46 47
000
FTUS43 KMKX 111600 AAA
TAFMKE
TAF AMD
KMKE 111600Z 1116/1218 20009KT P6SM FEW250
     FM111800 18009KT P6SM FEW150 SCT250
     FM112000 14011KT P6SM BKN120
     FM120200 17007KT P6SM VCSH BKN100
     FM121000 17005KT 4SM BR SCT050 OVC100
     FM121500 21008KT P6SM SCT050 OVC100=

USA.gov is the U.S. government's official web portal to all federal, state and local government web resources and services.